THY6FX LTFM-EDDL
Flight info
| Callsign | THY6FX |
|---|---|
| Flight time | 2h 30m |
| Altitude | 38000 |
| Route | TUDB1D TUDBU Q26 ETUBA DCT NAVOD DCT INVED DCT OGVUN DCT BEGLA DCT UBUXI DCT DITIS DCT RAPET DCT MASEK DCT AMETU T852 TINSA T854 DOMUX DOMUX1A |
| Aircraft | B77W/H-SDE1E2E3FGHIJ2J3J4J5M1RWXY/LB1D1 |
Departure
| Time | 2026-05-04 17:57 |
|---|---|
| Airport | İstanbul Airport (LTFM) |
Arrival
| Time | 2026-05-04 20:28 |
|---|---|
| Airport | Düsseldorf Airport (EDDL) |
| Time | Latitude | Longitude | Altitude | Speed | Heading |
|---|---|---|---|---|---|
| 2026-05-04 17:30 | 41.26155 | 28.73636 | 317 ft | 0 kts | 107° |
| 2026-05-04 17:44 | 41.26155 | 28.73634 | 318 ft | 2 kts | 107° |
| 2026-05-04 17:44 | 41.26163 | 28.73602 | 317 ft | 4 kts | 106° |
| 2026-05-04 17:45 | 41.26169 | 28.73568 | 317 ft | 4 kts | 91° |
| 2026-05-04 17:45 | 41.26165 | 28.73534 | 315 ft | 4 kts | 62° |
| 2026-05-04 17:45 | 41.26148 | 28.73509 | 316 ft | 4 kts | 21° |
| 2026-05-04 17:45 | 41.26140 | 28.73505 | 316 ft | 0 kts | 13° |
| 2026-05-04 17:50 | 41.26156 | 28.73510 | 316 ft | 4 kts | 13° |
| 2026-05-04 17:51 | 41.26194 | 28.73502 | 318 ft | 8 kts | 328° |
| 2026-05-04 17:51 | 41.26217 | 28.73432 | 318 ft | 9 kts | 276° |
| 2026-05-04 17:51 | 41.26220 | 28.73352 | 318 ft | 8 kts | 271° |
| 2026-05-04 17:51 | 41.26219 | 28.73271 | 318 ft | 9 kts | 268° |
| 2026-05-04 17:52 | 41.26216 | 28.73178 | 317 ft | 11 kts | 267° |
| 2026-05-04 17:52 | 41.26216 | 28.73072 | 317 ft | 12 kts | 272° |
| 2026-05-04 17:52 | 41.26216 | 28.72994 | 317 ft | 1 kts | 270° |
| 2026-05-04 17:52 | 41.26216 | 28.72981 | 317 ft | 0 kts | 269° |
| 2026-05-04 17:55 | 41.26216 | 28.72979 | 317 ft | 1 kts | 269° |
| 2026-05-04 17:55 | 41.26214 | 28.72913 | 318 ft | 16 kts | 267° |
| 2026-05-04 17:55 | 41.26207 | 28.72764 | 319 ft | 16 kts | 271° |
| 2026-05-04 17:56 | 41.26212 | 28.72608 | 318 ft | 17 kts | 271° |
| 2026-05-04 17:56 | 41.26216 | 28.72545 | 319 ft | 4 kts | 302° |
| 2026-05-04 17:56 | 41.26250 | 28.72529 | 319 ft | 6 kts | 351° |
| 2026-05-04 17:56 | 41.26305 | 28.72524 | 318 ft | 17 kts | 358° |
| 2026-05-04 17:57 | 41.26726 | 28.72515 | 315 ft | 109 kts | 359° |
| 2026-05-04 17:57 | 41.27747 | 28.72507 | 503 ft | 167 kts | 359° |
| 2026-05-04 17:57 | 41.28942 | 28.72519 | 1397 ft | 175 kts | 1° |
| 2026-05-04 17:57 | 41.30195 | 28.72501 | 2196 ft | 191 kts | 1° |
| 2026-05-04 17:58 | 41.31624 | 28.72495 | 2701 ft | 220 kts | 0° |
| 2026-05-04 17:58 | 41.33193 | 28.72503 | 3652 ft | 226 kts | 0° |
| 2026-05-04 17:58 | 41.34758 | 28.72491 | 4885 ft | 230 kts | 360° |
| 2026-05-04 17:58 | 41.36363 | 28.72500 | 4996 ft | 230 kts | 0° |
| 2026-05-04 17:59 | 41.37931 | 28.72485 | 5685 ft | 228 kts | 354° |
| 2026-05-04 17:59 | 41.39441 | 28.71781 | 6590 ft | 235 kts | 336° |
| 2026-05-04 17:59 | 41.42456 | 28.69826 | 8575 ft | 245 kts | 339° |
| 2026-05-04 18:00 | 41.44007 | 28.68841 | 9628 ft | 250 kts | 340° |
| 2026-05-04 18:00 | 41.45596 | 28.67830 | 10587 ft | 256 kts | 340° |
| 2026-05-04 18:00 | 41.47244 | 28.66779 | 11569 ft | 263 kts | 340° |
| 2026-05-04 18:00 | 41.48918 | 28.65710 | 12640 ft | 270 kts | 340° |
| 2026-05-04 18:01 | 41.50639 | 28.64609 | 13748 ft | 278 kts | 339° |
| 2026-05-04 18:01 | 41.52376 | 28.63497 | 14747 ft | 284 kts | 339° |
| 2026-05-04 18:01 | 41.54165 | 28.62350 | 15873 ft | 286 kts | 340° |
| 2026-05-04 18:02 | 41.57766 | 28.59850 | 17999 ft | 305 kts | 328° |
| 2026-05-04 18:02 | 41.59298 | 28.57773 | 18954 ft | 319 kts | 318° |
| 2026-05-04 18:02 | 41.60769 | 28.55530 | 19989 ft | 322 kts | 318° |
| 2026-05-04 18:02 | 41.62261 | 28.53289 | 21049 ft | 325 kts | 319° |
| 2026-05-04 18:03 | 41.63787 | 28.51031 | 22093 ft | 329 kts | 319° |
| 2026-05-04 18:03 | 41.65343 | 28.48745 | 23113 ft | 335 kts | 319° |
| 2026-05-04 18:03 | 41.66905 | 28.46408 | 24030 ft | 342 kts | 315° |
| 2026-05-04 18:03 | 41.68122 | 28.43625 | 24801 ft | 358 kts | 301° |
| 2026-05-04 18:04 | 41.69112 | 28.40535 | 25560 ft | 366 kts | 299° |
| 2026-05-04 18:04 | 41.70100 | 28.37365 | 26384 ft | 371 kts | 299° |
| 2026-05-04 18:04 | 41.72139 | 28.30916 | 28057 ft | 381 kts | 299° |
| 2026-05-04 18:05 | 41.73192 | 28.27647 | 28848 ft | 386 kts | 299° |
| 2026-05-04 18:05 | 41.74270 | 28.24323 | 29670 ft | 392 kts | 298° |
| 2026-05-04 18:05 | 41.75362 | 28.20965 | 30407 ft | 397 kts | 298° |
| 2026-05-04 18:05 | 41.76470 | 28.17556 | 31094 ft | 400 kts | 298° |
| 2026-05-04 18:06 | 41.78705 | 28.10666 | 32478 ft | 406 kts | 298° |
| 2026-05-04 18:06 | 41.79939 | 28.07256 | 33101 ft | 405 kts | 307° |
| 2026-05-04 18:06 | 41.81574 | 28.04186 | 33675 ft | 405 kts | 313° |
| 2026-05-04 18:07 | 41.83330 | 28.01209 | 34224 ft | 408 kts | 313° |
| 2026-05-04 18:07 | 41.85109 | 27.98210 | 34707 ft | 412 kts | 313° |
| 2026-05-04 18:07 | 41.86879 | 27.95173 | 35189 ft | 416 kts | 311° |
| 2026-05-04 18:07 | 41.88647 | 27.92076 | 35646 ft | 419 kts | 311° |
| 2026-05-04 18:08 | 41.90420 | 27.88931 | 36065 ft | 424 kts | 310° |
| 2026-05-04 18:08 | 41.92217 | 27.85725 | 36060 ft | 436 kts | 310° |
| 2026-05-04 18:08 | 41.94039 | 27.82467 | 36059 ft | 447 kts | 310° |
| 2026-05-04 18:08 | 41.95928 | 27.79088 | 36087 ft | 457 kts | 310° |
| 2026-05-04 18:09 | 42.00115 | 27.72485 | 36090 ft | 470 kts | 315° |
| 2026-05-04 18:09 | 42.04449 | 27.65780 | 36524 ft | 476 kts | 313° |
| 2026-05-04 18:10 | 42.06583 | 27.62378 | 36976 ft | 474 kts | 313° |
| 2026-05-04 18:10 | 42.08698 | 27.59008 | 37432 ft | 471 kts | 312° |
| 2026-05-04 18:10 | 42.10812 | 27.55651 | 37909 ft | 468 kts | 312° |
| 2026-05-04 18:10 | 42.12934 | 27.52299 | 38094 ft | 473 kts | 312° |
| 2026-05-04 18:11 | 42.17216 | 27.45561 | 38063 ft | 471 kts | 312° |
| 2026-05-04 18:11 | 42.21458 | 27.38886 | 38071 ft | 467 kts | 312° |
| 2026-05-04 18:12 | 42.25674 | 27.32242 | 38065 ft | 466 kts | 312° |
| 2026-05-04 18:12 | 42.29880 | 27.25598 | 38065 ft | 465 kts | 312° |
| 2026-05-04 18:13 | 42.34087 | 27.18933 | 38060 ft | 466 kts | 312° |
| 2026-05-04 18:14 | 42.40391 | 27.08919 | 38044 ft | 466 kts | 312° |
| 2026-05-04 18:14 | 42.44563 | 27.02272 | 38049 ft | 466 kts | 312° |
| 2026-05-04 18:15 | 42.52946 | 26.88871 | 38028 ft | 466 kts | 311° |
| 2026-05-04 18:16 | 42.57138 | 26.82147 | 38050 ft | 466 kts | 311° |
| 2026-05-04 18:16 | 42.61318 | 26.75425 | 38049 ft | 466 kts | 311° |
| 2026-05-04 18:17 | 42.67587 | 26.65317 | 38037 ft | 466 kts | 311° |
| 2026-05-04 18:18 | 42.73830 | 26.55219 | 38047 ft | 467 kts | 311° |
| 2026-05-04 18:18 | 42.78009 | 26.48438 | 38054 ft | 467 kts | 311° |
| 2026-05-04 18:19 | 42.84266 | 26.38256 | 38040 ft | 467 kts | 311° |
| 2026-05-04 18:19 | 42.88427 | 26.31466 | 38049 ft | 467 kts | 311° |
| 2026-05-04 18:20 | 42.92589 | 26.24658 | 38052 ft | 467 kts | 311° |
| 2026-05-04 18:20 | 42.96741 | 26.17851 | 38053 ft | 467 kts | 311° |
| 2026-05-04 18:21 | 43.00896 | 26.11023 | 38054 ft | 467 kts | 310° |
| 2026-05-04 18:21 | 43.05041 | 26.04196 | 38075 ft | 467 kts | 310° |
| 2026-05-04 18:22 | 43.09184 | 25.97356 | 38052 ft | 467 kts | 310° |
| 2026-05-04 18:22 | 43.13330 | 25.90494 | 38046 ft | 467 kts | 310° |
| 2026-05-04 18:23 | 43.17473 | 25.83623 | 38041 ft | 467 kts | 310° |
| 2026-05-04 18:23 | 43.20912 | 25.77906 | 38045 ft | 467 kts | 310° |
| 2026-05-04 18:24 | 43.25042 | 25.71026 | 38042 ft | 467 kts | 310° |
| 2026-05-04 18:24 | 43.29167 | 25.64138 | 38043 ft | 467 kts | 310° |
| 2026-05-04 18:25 | 43.33295 | 25.57229 | 38046 ft | 467 kts | 310° |
| 2026-05-04 18:25 | 43.37393 | 25.50354 | 38053 ft | 467 kts | 310° |
| 2026-05-04 18:26 | 43.41504 | 25.43440 | 38046 ft | 467 kts | 310° |
| 2026-05-04 18:26 | 43.45621 | 25.36500 | 38045 ft | 467 kts | 310° |
| 2026-05-04 18:27 | 43.49731 | 25.29555 | 38067 ft | 467 kts | 310° |
| 2026-05-04 18:27 | 43.53829 | 25.22615 | 38066 ft | 467 kts | 310° |
| 2026-05-04 18:28 | 43.57921 | 25.15666 | 38068 ft | 467 kts | 310° |
| 2026-05-04 18:28 | 43.62017 | 25.08696 | 38042 ft | 467 kts | 310° |
| 2026-05-04 18:29 | 43.66102 | 25.01726 | 38067 ft | 467 kts | 310° |
| 2026-05-04 18:29 | 43.70195 | 24.94729 | 38060 ft | 467 kts | 310° |
| 2026-05-04 18:30 | 43.76315 | 24.84232 | 38063 ft | 468 kts | 310° |
| 2026-05-04 18:31 | 43.80372 | 24.77252 | 38070 ft | 468 kts | 310° |
| 2026-05-04 18:31 | 43.84458 | 24.70207 | 38066 ft | 469 kts | 310° |
| 2026-05-04 18:32 | 43.88531 | 24.63164 | 38052 ft | 469 kts | 309° |
| 2026-05-04 18:32 | 43.92611 | 24.56094 | 38066 ft | 469 kts | 310° |
| 2026-05-04 18:33 | 43.96679 | 24.49027 | 38062 ft | 469 kts | 310° |
| 2026-05-04 18:33 | 44.00744 | 24.41949 | 38063 ft | 469 kts | 309° |
| 2026-05-04 18:34 | 44.04811 | 24.34848 | 38053 ft | 469 kts | 309° |
| 2026-05-04 18:34 | 44.08869 | 24.27747 | 38062 ft | 468 kts | 309° |
| 2026-05-04 18:35 | 44.12910 | 24.20657 | 38061 ft | 468 kts | 309° |
| 2026-05-04 18:35 | 44.16924 | 24.13599 | 38060 ft | 467 kts | 309° |
| 2026-05-04 18:36 | 44.20957 | 24.06488 | 38051 ft | 467 kts | 309° |
| 2026-05-04 18:36 | 44.24979 | 23.99381 | 38061 ft | 467 kts | 309° |
| 2026-05-04 18:37 | 44.28999 | 23.92259 | 38054 ft | 467 kts | 309° |
| 2026-05-04 18:37 | 44.33024 | 23.85112 | 38051 ft | 468 kts | 309° |
| 2026-05-04 18:38 | 44.37040 | 23.77961 | 38048 ft | 468 kts | 309° |
| 2026-05-04 18:38 | 44.41054 | 23.70797 | 38052 ft | 468 kts | 309° |
| 2026-05-04 18:39 | 44.45072 | 23.63606 | 38049 ft | 469 kts | 309° |
| 2026-05-04 18:39 | 44.49081 | 23.56416 | 38051 ft | 469 kts | 309° |
| 2026-05-04 18:40 | 44.53065 | 23.49251 | 38050 ft | 469 kts | 309° |
| 2026-05-04 18:40 | 44.57064 | 23.42042 | 38051 ft | 469 kts | 309° |
| 2026-05-04 18:41 | 44.61064 | 23.34812 | 38046 ft | 468 kts | 309° |
| 2026-05-04 18:41 | 44.65053 | 23.27585 | 38047 ft | 468 kts | 309° |
| 2026-05-04 18:42 | 44.69036 | 23.20351 | 38046 ft | 468 kts | 309° |
| 2026-05-04 18:42 | 44.73017 | 23.13102 | 38047 ft | 468 kts | 309° |
| 2026-05-04 18:43 | 44.76989 | 23.05848 | 38052 ft | 467 kts | 309° |
| 2026-05-04 18:43 | 44.80957 | 22.98586 | 38049 ft | 467 kts | 308° |
| 2026-05-04 18:44 | 44.84914 | 22.91326 | 38057 ft | 467 kts | 308° |
| 2026-05-04 18:44 | 44.88868 | 22.84053 | 38058 ft | 468 kts | 308° |
| 2026-05-04 18:45 | 44.92800 | 22.76802 | 38069 ft | 468 kts | 308° |
| 2026-05-04 18:45 | 44.96755 | 22.69490 | 38072 ft | 468 kts | 308° |
| 2026-05-04 18:46 | 45.00702 | 22.62172 | 38078 ft | 469 kts | 308° |
| 2026-05-04 18:46 | 45.04655 | 22.54827 | 38101 ft | 469 kts | 308° |
| 2026-05-04 18:47 | 45.08601 | 22.47472 | 38114 ft | 470 kts | 308° |
| 2026-05-04 18:47 | 45.12555 | 22.40088 | 38096 ft | 470 kts | 308° |
| 2026-05-04 18:48 | 45.16494 | 22.32710 | 38123 ft | 469 kts | 308° |
| 2026-05-04 18:48 | 45.20421 | 22.25337 | 38112 ft | 468 kts | 308° |
| 2026-05-04 18:49 | 45.24309 | 22.18016 | 38118 ft | 467 kts | 308° |
| 2026-05-04 18:49 | 45.28213 | 22.10649 | 38098 ft | 467 kts | 308° |
| 2026-05-04 18:50 | 45.32086 | 22.03321 | 38105 ft | 466 kts | 308° |
| 2026-05-04 18:50 | 45.35968 | 21.95954 | 38104 ft | 466 kts | 308° |
| 2026-05-04 18:51 | 45.39852 | 21.88567 | 38089 ft | 466 kts | 308° |
| 2026-05-04 18:51 | 45.43725 | 21.81182 | 38090 ft | 465 kts | 308° |
| 2026-05-04 18:52 | 45.47589 | 21.73793 | 38088 ft | 465 kts | 308° |
| 2026-05-04 18:52 | 45.51453 | 21.66385 | 38087 ft | 465 kts | 308° |
| 2026-05-04 18:53 | 45.55304 | 21.58983 | 38092 ft | 465 kts | 308° |
| 2026-05-04 18:53 | 45.59148 | 21.51576 | 38077 ft | 464 kts | 308° |
| 2026-05-04 18:54 | 45.62995 | 21.44143 | 38092 ft | 470 kts | 308° |
| 2026-05-04 18:54 | 45.66924 | 21.36537 | 38088 ft | 479 kts | 308° |
| 2026-05-04 18:55 | 45.70874 | 21.28862 | 38078 ft | 480 kts | 308° |
| 2026-05-04 18:55 | 45.76789 | 21.17329 | 38068 ft | 478 kts | 308° |
| 2026-05-04 18:56 | 45.80716 | 21.09650 | 38074 ft | 476 kts | 307° |
| 2026-05-04 18:56 | 45.84619 | 21.01996 | 38075 ft | 475 kts | 307° |
| 2026-05-04 18:57 | 45.88511 | 20.94343 | 38065 ft | 475 kts | 307° |
| 2026-05-04 18:57 | 45.92374 | 20.86726 | 38071 ft | 474 kts | 307° |
| 2026-05-04 18:58 | 45.96250 | 20.79064 | 38075 ft | 474 kts | 307° |
| 2026-05-04 18:58 | 46.00122 | 20.71388 | 38075 ft | 475 kts | 307° |
| 2026-05-04 18:59 | 46.03999 | 20.63682 | 38057 ft | 475 kts | 307° |
| 2026-05-04 18:59 | 46.07867 | 20.55974 | 38087 ft | 475 kts | 307° |
| 2026-05-04 19:00 | 46.11741 | 20.48232 | 38065 ft | 476 kts | 307° |
| 2026-05-04 19:00 | 46.15614 | 20.40473 | 38066 ft | 476 kts | 307° |
| 2026-05-04 19:01 | 46.19500 | 20.32720 | 38070 ft | 477 kts | 307° |
| 2026-05-04 19:01 | 46.23600 | 20.25191 | 38082 ft | 476 kts | 310° |
| 2026-05-04 19:02 | 46.27836 | 20.17851 | 38062 ft | 477 kts | 310° |
| 2026-05-04 19:02 | 46.32053 | 20.10514 | 38062 ft | 477 kts | 310° |
| 2026-05-04 19:03 | 46.36260 | 20.03096 | 38066 ft | 477 kts | 310° |
| 2026-05-04 19:03 | 46.40457 | 19.95639 | 38060 ft | 477 kts | 310° |
| 2026-05-04 19:04 | 46.44645 | 19.88168 | 38077 ft | 477 kts | 309° |
| 2026-05-04 19:04 | 46.48829 | 19.80689 | 38056 ft | 477 kts | 309° |
| 2026-05-04 19:05 | 46.53008 | 19.73200 | 38061 ft | 477 kts | 309° |
| 2026-05-04 19:05 | 46.57176 | 19.65714 | 38050 ft | 477 kts | 309° |
| 2026-05-04 19:06 | 46.61336 | 19.58220 | 38049 ft | 476 kts | 309° |
| 2026-05-04 19:06 | 46.65496 | 19.50705 | 38042 ft | 476 kts | 309° |
| 2026-05-04 19:07 | 46.69643 | 19.43193 | 38040 ft | 476 kts | 309° |
| 2026-05-04 19:07 | 46.73781 | 19.35678 | 38034 ft | 475 kts | 309° |
| 2026-05-04 19:08 | 46.77912 | 19.28155 | 38055 ft | 474 kts | 309° |
| 2026-05-04 19:08 | 46.81335 | 19.21906 | 38053 ft | 474 kts | 309° |
| 2026-05-04 19:09 | 46.86111 | 19.13163 | 38038 ft | 474 kts | 309° |
| 2026-05-04 19:09 | 46.90210 | 19.05637 | 38051 ft | 473 kts | 308° |
| 2026-05-04 19:10 | 46.92948 | 19.00599 | 38054 ft | 473 kts | 308° |
| 2026-05-04 19:10 | 46.97708 | 18.91817 | 38048 ft | 473 kts | 308° |
| 2026-05-04 19:11 | 47.01789 | 18.84265 | 38044 ft | 473 kts | 308° |
| 2026-05-04 19:11 | 47.05873 | 18.76687 | 38019 ft | 473 kts | 308° |
| 2026-05-04 19:12 | 47.11987 | 18.65304 | 38049 ft | 474 kts | 308° |
| 2026-05-04 19:13 | 47.16058 | 18.57698 | 38039 ft | 474 kts | 308° |
| 2026-05-04 19:13 | 47.20106 | 18.50115 | 38042 ft | 474 kts | 308° |
| 2026-05-04 19:14 | 47.24168 | 18.42482 | 38039 ft | 474 kts | 308° |
| 2026-05-04 19:14 | 47.28239 | 18.34812 | 38015 ft | 474 kts | 308° |
| 2026-05-04 19:15 | 47.32286 | 18.27168 | 38014 ft | 474 kts | 308° |
| 2026-05-04 19:15 | 47.36333 | 18.19499 | 38028 ft | 474 kts | 308° |
| 2026-05-04 19:16 | 47.40382 | 18.11808 | 38025 ft | 474 kts | 307° |
| 2026-05-04 19:16 | 47.44418 | 18.04119 | 38017 ft | 474 kts | 307° |
| 2026-05-04 19:17 | 47.48461 | 17.96395 | 38017 ft | 474 kts | 307° |
| 2026-05-04 19:17 | 47.52423 | 17.88804 | 38007 ft | 474 kts | 307° |
| 2026-05-04 19:18 | 47.56434 | 17.81098 | 37999 ft | 473 kts | 307° |
| 2026-05-04 19:18 | 47.60457 | 17.73347 | 37975 ft | 473 kts | 307° |
| 2026-05-04 19:19 | 47.64473 | 17.65588 | 37998 ft | 473 kts | 307° |
| 2026-05-04 19:19 | 47.68448 | 17.57886 | 37999 ft | 472 kts | 307° |
| 2026-05-04 19:20 | 47.72436 | 17.50136 | 37987 ft | 472 kts | 307° |
| 2026-05-04 19:20 | 47.76408 | 17.42396 | 37964 ft | 471 kts | 306° |
| 2026-05-04 19:21 | 47.80363 | 17.34669 | 37963 ft | 471 kts | 306° |
| 2026-05-04 19:21 | 47.84332 | 17.26890 | 37954 ft | 470 kts | 306° |
| 2026-05-04 19:22 | 47.88282 | 17.19127 | 37954 ft | 470 kts | 306° |
| 2026-05-04 19:22 | 47.92227 | 17.11352 | 37951 ft | 470 kts | 306° |
| 2026-05-04 19:23 | 47.96138 | 17.03622 | 37949 ft | 470 kts | 306° |
| 2026-05-04 19:23 | 48.00084 | 16.95801 | 37955 ft | 470 kts | 306° |
| 2026-05-04 19:24 | 48.04000 | 16.88016 | 37947 ft | 470 kts | 306° |
| 2026-05-04 19:24 | 48.07919 | 16.80202 | 37938 ft | 470 kts | 306° |
| 2026-05-04 19:25 | 48.11852 | 16.72340 | 37935 ft | 470 kts | 306° |
| 2026-05-04 19:25 | 48.15766 | 16.64491 | 37940 ft | 469 kts | 306° |
| 2026-05-04 19:26 | 48.19642 | 16.56697 | 37935 ft | 469 kts | 306° |
| 2026-05-04 19:26 | 48.23556 | 16.48804 | 37938 ft | 469 kts | 305° |
| 2026-05-04 19:27 | 48.27436 | 16.40955 | 37937 ft | 470 kts | 305° |
| 2026-05-04 19:27 | 48.31311 | 16.33096 | 37932 ft | 470 kts | 305° |
| 2026-05-04 19:28 | 48.35244 | 16.25094 | 37936 ft | 470 kts | 305° |
| 2026-05-04 19:28 | 48.39131 | 16.17164 | 37928 ft | 470 kts | 305° |
| 2026-05-04 19:29 | 48.43008 | 16.09229 | 37920 ft | 471 kts | 304° |
| 2026-05-04 19:29 | 48.46881 | 16.01280 | 37912 ft | 471 kts | 304° |
| 2026-05-04 19:30 | 48.50756 | 15.93304 | 37914 ft | 471 kts | 304° |
| 2026-05-04 19:30 | 48.54619 | 15.85329 | 37912 ft | 471 kts | 304° |
| 2026-05-04 19:31 | 48.58475 | 15.77345 | 37916 ft | 471 kts | 304° |
| 2026-05-04 19:31 | 48.62336 | 15.69326 | 37914 ft | 472 kts | 304° |
| 2026-05-04 19:32 | 48.66191 | 15.61297 | 37918 ft | 472 kts | 304° |
| 2026-05-04 19:32 | 48.70049 | 15.53236 | 37930 ft | 472 kts | 304° |
| 2026-05-04 19:33 | 48.73895 | 15.45179 | 37922 ft | 472 kts | 304° |
| 2026-05-04 19:33 | 48.77735 | 15.37109 | 37920 ft | 473 kts | 304° |
| 2026-05-04 19:34 | 48.81556 | 15.29055 | 37924 ft | 473 kts | 304° |
| 2026-05-04 19:34 | 48.85396 | 15.20937 | 37923 ft | 474 kts | 304° |
| 2026-05-04 19:35 | 48.89246 | 15.12777 | 37929 ft | 474 kts | 304° |
| 2026-05-04 19:35 | 48.93133 | 15.04666 | 37926 ft | 474 kts | 304° |
| 2026-05-04 19:36 | 48.96523 | 14.96106 | 37931 ft | 472 kts | 297° |
| 2026-05-04 19:36 | 48.99657 | 14.87322 | 37914 ft | 473 kts | 297° |
| 2026-05-04 19:37 | 49.02803 | 14.78518 | 37926 ft | 473 kts | 297° |
| 2026-05-04 19:37 | 49.05965 | 14.69739 | 37918 ft | 473 kts | 297° |
| 2026-05-04 19:38 | 49.09137 | 14.60945 | 37918 ft | 473 kts | 297° |
| 2026-05-04 19:38 | 49.12298 | 14.52159 | 37921 ft | 472 kts | 297° |
| 2026-05-04 19:39 | 49.15435 | 14.43408 | 37928 ft | 472 kts | 296° |
| 2026-05-04 19:39 | 49.18580 | 14.34599 | 37928 ft | 472 kts | 296° |
| 2026-05-04 19:40 | 49.21726 | 14.25759 | 37934 ft | 473 kts | 296° |
| 2026-05-04 19:40 | 49.24864 | 14.16910 | 37928 ft | 474 kts | 296° |
| 2026-05-04 19:41 | 49.27997 | 14.08044 | 37934 ft | 474 kts | 296° |
| 2026-05-04 19:41 | 49.31130 | 13.99148 | 37932 ft | 474 kts | 296° |
| 2026-05-04 19:42 | 49.34251 | 13.90257 | 37939 ft | 474 kts | 295° |
| 2026-05-04 19:42 | 49.37366 | 13.81348 | 37943 ft | 474 kts | 295° |
| 2026-05-04 19:43 | 49.40481 | 13.72414 | 37936 ft | 474 kts | 295° |
| 2026-05-04 19:43 | 49.43581 | 13.63487 | 37940 ft | 474 kts | 295° |
| 2026-05-04 19:44 | 49.46680 | 13.54534 | 37933 ft | 474 kts | 295° |
| 2026-05-04 19:44 | 49.49767 | 13.45585 | 37939 ft | 474 kts | 295° |
| 2026-05-04 19:45 | 49.52833 | 13.36664 | 37936 ft | 474 kts | 295° |
| 2026-05-04 19:45 | 49.55908 | 13.27688 | 37939 ft | 474 kts | 295° |
| 2026-05-04 19:46 | 49.58980 | 13.18688 | 37939 ft | 474 kts | 295° |
| 2026-05-04 19:46 | 49.62040 | 13.09691 | 37936 ft | 474 kts | 295° |
| 2026-05-04 19:47 | 49.65098 | 13.00668 | 37937 ft | 474 kts | 295° |
| 2026-05-04 19:47 | 49.68143 | 12.91651 | 37938 ft | 474 kts | 295° |
| 2026-05-04 19:48 | 49.71187 | 12.82605 | 37946 ft | 474 kts | 295° |
| 2026-05-04 19:48 | 49.74217 | 12.73567 | 37941 ft | 474 kts | 294° |
| 2026-05-04 19:49 | 49.77241 | 12.64518 | 37950 ft | 474 kts | 294° |
| 2026-05-04 19:49 | 49.80262 | 12.55444 | 37945 ft | 474 kts | 294° |
| 2026-05-04 19:50 | 49.83269 | 12.46379 | 37943 ft | 473 kts | 294° |
| 2026-05-04 19:50 | 49.86268 | 12.37305 | 37948 ft | 473 kts | 294° |
| 2026-05-04 19:51 | 49.89266 | 12.28201 | 37950 ft | 474 kts | 294° |
| 2026-05-04 19:51 | 49.92260 | 12.19078 | 37947 ft | 474 kts | 294° |
| 2026-05-04 19:52 | 49.95247 | 12.09945 | 37944 ft | 475 kts | 294° |
| 2026-05-04 19:52 | 49.98212 | 12.00840 | 37953 ft | 475 kts | 294° |
| 2026-05-04 19:53 | 50.00707 | 11.93156 | 37955 ft | 475 kts | 294° |
| 2026-05-04 19:53 | 50.04161 | 11.82479 | 37953 ft | 476 kts | 293° |
| 2026-05-04 19:54 | 50.07126 | 11.73280 | 37972 ft | 476 kts | 293° |
| 2026-05-04 19:54 | 50.10081 | 11.64075 | 37975 ft | 475 kts | 293° |
| 2026-05-04 19:55 | 50.12532 | 11.56413 | 37978 ft | 475 kts | 293° |
| 2026-05-04 19:55 | 50.15476 | 11.47181 | 37979 ft | 475 kts | 293° |
| 2026-05-04 19:56 | 50.18406 | 11.37958 | 37972 ft | 475 kts | 293° |
| 2026-05-04 19:56 | 50.21326 | 11.28730 | 37972 ft | 474 kts | 292° |
| 2026-05-04 19:57 | 50.24243 | 11.19481 | 37973 ft | 474 kts | 292° |
| 2026-05-04 19:57 | 50.27151 | 11.10222 | 37972 ft | 474 kts | 292° |
| 2026-05-04 19:58 | 50.30048 | 11.00965 | 37985 ft | 474 kts | 292° |
| 2026-05-04 19:58 | 50.32944 | 10.91676 | 37987 ft | 474 kts | 292° |
| 2026-05-04 19:59 | 50.35829 | 10.82387 | 37983 ft | 475 kts | 292° |
| 2026-05-04 19:59 | 50.38712 | 10.73070 | 38004 ft | 475 kts | 292° |
| 2026-05-04 20:00 | 50.41583 | 10.63757 | 37993 ft | 475 kts | 292° |
| 2026-05-04 20:00 | 50.44450 | 10.54421 | 37988 ft | 475 kts | 291° |
| 2026-05-04 20:01 | 50.47315 | 10.45054 | 37996 ft | 476 kts | 291° |
| 2026-05-04 20:01 | 50.50170 | 10.35687 | 37983 ft | 476 kts | 291° |
| 2026-05-04 20:02 | 50.53024 | 10.26286 | 37992 ft | 476 kts | 291° |
| 2026-05-04 20:02 | 50.55849 | 10.16938 | 37985 ft | 465 kts | 291° |
| 2026-05-04 20:02 | 50.57218 | 10.12395 | 37965 ft | 452 kts | 291° |
| 2026-05-04 20:03 | 50.58528 | 10.08036 | 37991 ft | 445 kts | 291° |
| 2026-05-04 20:03 | 50.61154 | 9.99244 | 37977 ft | 444 kts | 291° |
| 2026-05-04 20:04 | 50.63779 | 9.90427 | 38003 ft | 445 kts | 290° |
| 2026-05-04 20:04 | 50.66410 | 9.81567 | 38000 ft | 448 kts | 290° |
| 2026-05-04 20:05 | 50.69061 | 9.72612 | 37991 ft | 452 kts | 290° |
| 2026-05-04 20:05 | 50.71723 | 9.63591 | 37993 ft | 454 kts | 290° |
| 2026-05-04 20:06 | 50.74388 | 9.54531 | 37978 ft | 455 kts | 290° |
| 2026-05-04 20:06 | 50.75713 | 9.50010 | 37730 ft | 455 kts | 290° |
| 2026-05-04 20:06 | 50.77040 | 9.45479 | 37444 ft | 453 kts | 290° |
| 2026-05-04 20:06 | 50.78358 | 9.40969 | 37171 ft | 451 kts | 290° |
| 2026-05-04 20:07 | 50.79667 | 9.36480 | 36917 ft | 451 kts | 290° |
| 2026-05-04 20:07 | 50.80978 | 9.31971 | 36652 ft | 451 kts | 290° |
| 2026-05-04 20:07 | 50.82283 | 9.27475 | 36382 ft | 451 kts | 290° |
| 2026-05-04 20:07 | 50.83590 | 9.22966 | 36157 ft | 450 kts | 290° |
| 2026-05-04 20:08 | 50.84877 | 9.18517 | 35896 ft | 450 kts | 290° |
| 2026-05-04 20:08 | 50.86198 | 9.13942 | 35592 ft | 450 kts | 289° |
| 2026-05-04 20:08 | 50.87505 | 9.09403 | 34980 ft | 457 kts | 289° |
| 2026-05-04 20:08 | 50.88829 | 9.04792 | 34264 ft | 460 kts | 289° |
| 2026-05-04 20:09 | 50.90159 | 9.00156 | 33512 ft | 468 kts | 289° |
| 2026-05-04 20:09 | 50.91505 | 8.95450 | 33141 ft | 479 kts | 289° |
| 2026-05-04 20:09 | 50.92889 | 8.90606 | 33036 ft | 487 kts | 290° |
| 2026-05-04 20:09 | 50.94295 | 8.85687 | 32910 ft | 492 kts | 290° |
| 2026-05-04 20:10 | 50.95707 | 8.80744 | 32773 ft | 491 kts | 290° |
| 2026-05-04 20:10 | 50.97111 | 8.75822 | 32643 ft | 489 kts | 290° |
| 2026-05-04 20:10 | 50.98506 | 8.70906 | 32501 ft | 487 kts | 289° |
| 2026-05-04 20:10 | 50.99945 | 8.66030 | 32358 ft | 487 kts | 294° |
| 2026-05-04 20:11 | 51.01824 | 8.61512 | 32220 ft | 494 kts | 304° |
| 2026-05-04 20:11 | 51.04149 | 8.57448 | 32094 ft | 498 kts | 311° |
| 2026-05-04 20:11 | 51.06829 | 8.53926 | 31970 ft | 504 kts | 320° |
| 2026-05-04 20:12 | 51.12759 | 8.47887 | 31745 ft | 506 kts | 323° |
| 2026-05-04 20:12 | 51.15739 | 8.44897 | 31615 ft | 506 kts | 323° |
| 2026-05-04 20:12 | 51.18705 | 8.41875 | 31500 ft | 506 kts | 322° |
| 2026-05-04 20:12 | 51.21653 | 8.38824 | 31362 ft | 505 kts | 322° |
| 2026-05-04 20:13 | 51.24554 | 8.35789 | 31237 ft | 504 kts | 322° |
| 2026-05-04 20:13 | 51.27489 | 8.32703 | 31109 ft | 509 kts | 322° |
| 2026-05-04 20:13 | 51.30474 | 8.29558 | 30716 ft | 517 kts | 322° |
| 2026-05-04 20:13 | 51.33488 | 8.26389 | 29973 ft | 519 kts | 322° |
| 2026-05-04 20:14 | 51.36493 | 8.23236 | 29162 ft | 513 kts | 322° |
| 2026-05-04 20:14 | 51.39457 | 8.20139 | 28365 ft | 506 kts | 322° |
| 2026-05-04 20:14 | 51.42399 | 8.17061 | 27600 ft | 506 kts | 322° |
| 2026-05-04 20:14 | 51.45258 | 8.13798 | 26771 ft | 501 kts | 315° |
| 2026-05-04 20:15 | 51.47477 | 8.09616 | 25869 ft | 487 kts | 297° |
| 2026-05-04 20:15 | 51.48763 | 8.04703 | 25019 ft | 473 kts | 281° |
| 2026-05-04 20:15 | 51.49292 | 7.99539 | 24217 ft | 464 kts | 272° |
| 2026-05-04 20:15 | 51.49276 | 7.94408 | 23374 ft | 458 kts | 262° |
| 2026-05-04 20:16 | 51.48580 | 7.89469 | 22431 ft | 451 kts | 251° |
| 2026-05-04 20:16 | 51.47643 | 7.84700 | 21523 ft | 445 kts | 251° |
| 2026-05-04 20:16 | 51.46726 | 7.79991 | 20631 ft | 439 kts | 251° |
| 2026-05-04 20:16 | 51.45867 | 7.75324 | 19766 ft | 434 kts | 252° |
| 2026-05-04 20:17 | 51.45043 | 7.70704 | 18935 ft | 429 kts | 252° |
| 2026-05-04 20:17 | 51.44234 | 7.66125 | 18029 ft | 426 kts | 252° |
| 2026-05-04 20:17 | 51.43426 | 7.61578 | 17001 ft | 424 kts | 252° |
| 2026-05-04 20:17 | 51.42620 | 7.57070 | 15996 ft | 410 kts | 252° |
| 2026-05-04 20:18 | 51.41765 | 7.52886 | 15001 ft | 387 kts | 244° |
| 2026-05-04 20:18 | 51.40391 | 7.49221 | 14091 ft | 382 kts | 233° |
| 2026-05-04 20:18 | 51.38855 | 7.45758 | 13112 ft | 380 kts | 233° |
| 2026-05-04 20:18 | 51.37383 | 7.42387 | 12078 ft | 355 kts | 233° |
| 2026-05-04 20:19 | 51.36165 | 7.39119 | 11128 ft | 333 kts | 248° |
| 2026-05-04 20:19 | 51.35880 | 7.35592 | 10536 ft | 311 kts | 272° |
| 2026-05-04 20:19 | 51.36374 | 7.32343 | 10051 ft | 293 kts | 289° |
| 2026-05-04 20:19 | 51.37287 | 7.29525 | 9488 ft | 280 kts | 301° |
| 2026-05-04 20:20 | 51.38688 | 7.27496 | 8856 ft | 277 kts | 330° |
| 2026-05-04 20:20 | 51.40516 | 7.26692 | 8254 ft | 273 kts | 355° |
| 2026-05-04 20:20 | 51.42390 | 7.26995 | 7689 ft | 270 kts | 8° |
| 2026-05-04 20:20 | 51.44227 | 7.26936 | 7105 ft | 262 kts | 340° |
| 2026-05-04 20:21 | 51.45745 | 7.25544 | 6527 ft | 246 kts | 309° |
| 2026-05-04 20:21 | 51.46551 | 7.23270 | 5954 ft | 230 kts | 278° |
| 2026-05-04 20:21 | 51.46286 | 7.18282 | 4859 ft | 233 kts | 259° |
| 2026-05-04 20:22 | 51.46047 | 7.15682 | 4426 ft | 236 kts | 259° |
| 2026-05-04 20:22 | 51.45801 | 7.13102 | 4116 ft | 231 kts | 257° |
| 2026-05-04 20:22 | 51.45223 | 7.10747 | 3796 ft | 227 kts | 238° |
| 2026-05-04 20:22 | 51.44360 | 7.08614 | 3511 ft | 230 kts | 233° |
| 2026-05-04 20:23 | 51.43409 | 7.06538 | 3327 ft | 230 kts | 232° |
| 2026-05-04 20:23 | 51.42453 | 7.04516 | 3192 ft | 225 kts | 231° |
| 2026-05-04 20:23 | 51.41512 | 7.02533 | 3088 ft | 222 kts | 231° |
| 2026-05-04 20:23 | 51.40578 | 7.00566 | 3043 ft | 222 kts | 231° |
| 2026-05-04 20:24 | 51.39641 | 6.98591 | 2986 ft | 224 kts | 231° |
| 2026-05-04 20:24 | 51.38700 | 6.96606 | 3011 ft | 224 kts | 231° |
| 2026-05-04 20:24 | 51.37752 | 6.94607 | 2796 ft | 227 kts | 231° |
| 2026-05-04 20:24 | 51.36831 | 6.92664 | 2504 ft | 215 kts | 232° |
| 2026-05-04 20:25 | 51.36206 | 6.91348 | 2288 ft | 203 kts | 232° |
| 2026-05-04 20:25 | 51.35388 | 6.89626 | 2043 ft | 185 kts | 231° |
| 2026-05-04 20:25 | 51.34638 | 6.88047 | 1790 ft | 171 kts | 231° |
| 2026-05-04 20:25 | 51.33953 | 6.86604 | 1566 ft | 156 kts | 231° |
| 2026-05-04 20:26 | 51.33293 | 6.85219 | 1370 ft | 159 kts | 231° |
| 2026-05-04 20:26 | 51.32642 | 6.83850 | 1158 ft | 148 kts | 229° |
| 2026-05-04 20:26 | 51.32036 | 6.82579 | 1008 ft | 146 kts | 229° |
| 2026-05-04 20:26 | 51.31408 | 6.81255 | 819 ft | 151 kts | 230° |
| 2026-05-04 20:27 | 51.30774 | 6.79904 | 637 ft | 151 kts | 231° |
| 2026-05-04 20:27 | 51.30144 | 6.78582 | 390 ft | 146 kts | 231° |
| 2026-05-04 20:27 | 51.29541 | 6.77326 | 179 ft | 138 kts | 231° |
| 2026-05-04 20:27 | 51.29012 | 6.76220 | 166 ft | 104 kts | 232° |
| 2026-05-04 20:28 | 51.28681 | 6.75525 | 162 ft | 64 kts | 232° |
| 2026-05-04 20:28 | 51.28468 | 6.75082 | 162 ft | 33 kts | 232° |
| 2026-05-04 20:28 | 51.28308 | 6.74979 | 161 ft | 22 kts | 164° |
| 2026-05-04 20:28 | 51.28221 | 6.75045 | 161 ft | 12 kts | 152° |
| 2026-05-04 20:29 | 51.28127 | 6.75130 | 161 ft | 25 kts | 149° |
| 2026-05-04 20:29 | 51.28085 | 6.75167 | 160 ft | 0 kts | 152° |
| 2026-05-04 20:31 | 51.28079 | 6.75172 | 160 ft | 5 kts | 155° |
| 2026-05-04 20:31 | 51.27983 | 6.75243 | 159 ft | 19 kts | 154° |
| 2026-05-04 20:31 | 51.27899 | 6.75303 | 160 ft | 9 kts | 154° |
| 2026-05-04 20:32 | 51.27840 | 6.75376 | 161 ft | 9 kts | 119° |
| 2026-05-04 20:32 | 51.27838 | 6.75394 | 161 ft | 1 kts | 91° |
| 2026-05-04 20:32 | 51.27856 | 6.75449 | 161 ft | 15 kts | 57° |
| 2026-05-04 20:32 | 51.27899 | 6.75546 | 161 ft | 3 kts | 58° |
| 2026-05-04 20:33 | 51.27891 | 6.75594 | 161 ft | 10 kts | 119° |
| 2026-05-04 20:33 | 51.27857 | 6.75692 | 161 ft | 10 kts | 111° |
| 2026-05-04 20:33 | 51.27839 | 6.75802 | 161 ft | 10 kts | 103° |
| 2026-05-04 20:33 | 51.27829 | 6.75914 | 161 ft | 10 kts | 93° |
| 2026-05-04 20:34 | 51.27831 | 6.76027 | 161 ft | 10 kts | 86° |
| 2026-05-04 20:34 | 51.27807 | 6.76103 | 161 ft | 8 kts | 143° |
| 2026-05-04 20:34 | 51.27765 | 6.76136 | 161 ft | 4 kts | 158° |
| 2026-05-04 20:34 | 51.27745 | 6.76149 | 161 ft | 2 kts | 158° |
| 2026-05-04 20:35 | 51.27739 | 6.76152 | 161 ft | 0 kts | 158° |